Meridian — EI6085 — position and weather

sailwx.info

Track history (hours):
 
Tides and Currents Weather Stations Pressure Air Temp Water Temp Dewpoint Dewpoint Depression Visibility Wind Speed Wind Dir Waves Ship Positions

Meridian

Last reported at 2015-May-06 09:24 UTC. Time now 2015-May-06 10:27 UTC.
Position N 54°38' W 008°27'.

Length 12 m.

Type: Fishing. MMSI: 250107450.

Date/timePositionNaut miles runAvg speedWind from/ knotsBaromVisibWave heightAir tempDewpointWater temp
2015-May-06 09:24N 54°38' W 008°27'1 0.0
2015-May-05 12:33N 54°37' W 008°26'0 0.5
2015-May-05 11:33N 54°38' W 008°26'0 0.0
2015-May-04 15:33N 54°38' W 008°27'4 4.1
2015-May-04 14:33N 54°34' W 008°30'8 7.9
2015-May-04 13:33N 54°28' W 008°38'0 0.1
2015-May-04 12:33N 54°28' W 008°38'1 0.7
2015-May-04 11:33N 54°28' W 008°40'1 1.4
2015-May-04 10:33N 54°27' W 008°39'1 1.3
2015-May-04 09:33N 54°28' W 008°39'3 3.4
2015-May-04 08:33N 54°30' W 008°36'9 9.3
2015-May-04 07:32N 54°38' W 008°27'0 0.0
2015-May-03 15:33N 54°38' W 008°26'6 6.0
2015-May-03 14:33N 54°37' W 008°36'4 1.3
2015-May-03 11:23N 54°37' W 008°43'6 7.1
2015-May-03 10:32N 54°35' W 008°33'3 2.9
2015-May-03 09:34N 54°36' W 008°29'2 0.1
2015-May-02 12:04N 54°38' W 008°27'1 1.4
2015-May-02 11:33N 54°37' W 008°26'3 2.6
2015-May-02 10:33N 54°35' W 008°27'1 0.7
2015-May-02 09:33N 54°34' W 008°28'2 1.9
2015-May-02 08:33N 54°36' W 008°29'2 2.4
2015-May-02 07:34N 54°38' W 008°27'0 0.2
2015-May-02 06:33N 54°38' W 008°27'0 0.0
2015-May-02 05:33N 54°38' W 008°27'0 0.0
2015-May-02 04:33N 54°38' W 008°27'0 0.0
2015-May-02 03:33N 54°38' W 008°27'0 0.0
2015-May-02 02:33N 54°38' W 008°27'0 0.0
2015-May-02 01:33N 54°38' W 008°27'0 0.0
2015-May-02 00:33N 54°38' W 008°27'0 0.0
2015-May-01 23:33N 54°38' W 008°27'0 0.0
2015-May-01 22:33N 54°38' W 008°27'0 0.0
2015-May-01 21:33N 54°38' W 008°27'0 0.0
2015-May-01 20:33N 54°38' W 008°27'0 0.0
2015-May-01 19:33N 54°38' W 008°27'0 0.0
2015-May-01 18:33N 54°38' W 008°27'0 0.0
2015-May-01 17:33N 54°38' W 008°27'0 0.0
2015-May-01 16:33N 54°38' W 008°27'0 0.0
2015-May-01 15:33N 54°38' W 008°27'0 0.0
2015-May-01 14:33N 54°38' W 008°27'0 0.0
2015-May-01 13:33N 54°38' W 008°27'0 0.0
2015-May-01 12:33N 54°38' W 008°27'0 0.0
2015-May-01 11:33N 54°38' W 008°27'0 0.0
2015-May-01 10:33N 54°38' W 008°27'0 0.0
2015-May-01 09:33N 54°38' W 008°27'0 0.0
2015-May-01 08:33N 54°38' W 008°27'0 0.0
2015-May-01 07:33N 54°38' W 008°27'0 0.0
2015-May-01 06:33N 54°38' W 008°27'0 0.0
2015-May-01 05:33N 54°38' W 008°27'0 0.0
2015-May-01 04:33N 54°38' W 008°27'0 0.0
2015-May-01 03:33N 54°38' W 008°27'0 0.0
2015-May-01 02:33N 54°38' W 008°27'0 0.0
2015-May-01 01:33N 54°38' W 008°27'0 0.0
2015-May-01 00:33N 54°38' W 008°27'0 0.0
2015-Apr-30 23:33N 54°38' W 008°27'0 0.0
2015-Apr-30 22:33N 54°38' W 008°27'0 0.0
2015-Apr-30 21:33N 54°38' W 008°27'0 0.0
2015-Apr-30 20:33N 54°38' W 008°27'0 0.0
2015-Apr-30 19:33N 54°38' W 008°27'0 0.0
2015-Apr-30 18:33N 54°38' W 008°27'0 0.0
2015-Apr-30 17:33N 54°38' W 008°27'0 0.0
2015-Apr-30 16:33N 54°38' W 008°27'0 0.0
2015-Apr-30 15:33N 54°38' W 008°27'0 0.0
2015-Apr-30 14:33N 54°38' W 008°27'0 0.0
2015-Apr-30 13:33N 54°38' W 008°27'0 0.0
2015-Apr-30 12:33N 54°38' W 008°27'0 0.0
2015-Apr-30 11:33N 54°38' W 008°27'0 0.0
2015-Apr-30 10:33N 54°38' W 008°27'0 0.0
2015-Apr-30 09:33N 54°38' W 008°27'0 0.0
2015-Apr-30 08:33N 54°38' W 008°27'0 0.0
2015-Apr-30 07:33N 54°38' W 008°27'0 0.0
2015-Apr-30 06:33N 54°38' W 008°27'0 0.0
2015-Apr-30 05:33N 54°38' W 008°27'0 0.0
2015-Apr-30 04:33N 54°38' W 008°27'0 0.0
2015-Apr-30 03:33N 54°38' W 008°27'0 0.0
2015-Apr-30 02:33N 54°38' W 008°27'0 0.0
2015-Apr-30 01:33N 54°38' W 008°27'0 0.0
2015-Apr-30 00:33N 54°38' W 008°27'0 0.0
2015-Apr-29 23:33N 54°38' W 008°27'0 0.0
2015-Apr-29 22:33N 54°38' W 008°27'0 0.0
2015-Apr-29 21:33N 54°38' W 008°27'0 0.0
2015-Apr-29 20:33N 54°38' W 008°27'0 0.0
2015-Apr-29 19:33N 54°38' W 008°27'0 0.0
2015-Apr-29 18:33N 54°38' W 008°27'0 0.0
2015-Apr-29 17:33N 54°38' W 008°27'0 0.0
2015-Apr-29 16:33N 54°38' W 008°27'0 0.0
2015-Apr-29 15:33N 54°38' W 008°27'0 0.0
2015-Apr-29 14:33N 54°38' W 008°27'0 0.0
2015-Apr-29 13:33N 54°38' W 008°27'0 0.0
2015-Apr-29 12:33N 54°38' W 008°27'0 0.0
2015-Apr-29 11:33N 54°38' W 008°27'0 0.0
2015-Apr-29 10:33N 54°38' W 008°27'0 0.0
2015-Apr-29 09:33N 54°38' W 008°27'0 0.0
2015-Apr-29 08:33N 54°38' W 008°27'  
Track history (hours):
 
Tides and Currents Weather Stations Pressure Air Temp Water Temp Dewpoint Dewpoint Depression Visibility Wind Speed Wind Dir Waves Ship Positions

Meridian

Last reported at 2015-May-06 09:24 UTC. Time now 2015-May-06 10:27 UTC.
Position N 54°38' W 008°27'.

Length 12 m.

Type: Fishing. MMSI: 250107450.

Date/timePositionNaut miles runAvg speedWind from/ knotsBaromVisibWave heightAir tempDewpointWater temp
2015-May-06 09:24N 54°38' W 008°27'1 0.0
2015-May-05 12:33N 54°37' W 008°26'0 0.5
2015-May-05 11:33N 54°38' W 008°26'0 0.0
2015-May-04 15:33N 54°38' W 008°27'4 4.1
2015-May-04 14:33N 54°34' W 008°30'8 7.9
2015-May-04 13:33N 54°28' W 008°38'0 0.1
2015-May-04 12:33N 54°28' W 008°38'1 0.7
2015-May-04 11:33N 54°28' W 008°40'1 1.4
2015-May-04 10:33N 54°27' W 008°39'1 1.3
2015-May-04 09:33N 54°28' W 008°39'3 3.4
2015-May-04 08:33N 54°30' W 008°36'9 9.3
2015-May-04 07:32N 54°38' W 008°27'0 0.0
2015-May-03 15:33N 54°38' W 008°26'6 6.0
2015-May-03 14:33N 54°37' W 008°36'4 1.3
2015-May-03 11:23N 54°37' W 008°43'6 7.1
2015-May-03 10:32N 54°35' W 008°33'3 2.9
2015-May-03 09:34N 54°36' W 008°29'2 0.1
2015-May-02 12:04N 54°38' W 008°27'1 1.4
2015-May-02 11:33N 54°37' W 008°26'3 2.6
2015-May-02 10:33N 54°35' W 008°27'1 0.7
2015-May-02 09:33N 54°34' W 008°28'2 1.9
2015-May-02 08:33N 54°36' W 008°29'2 2.4
2015-May-02 07:34N 54°38' W 008°27'0 0.2
2015-May-02 06:33N 54°38' W 008°27'0 0.0
2015-May-02 05:33N 54°38' W 008°27'0 0.0
2015-May-02 04:33N 54°38' W 008°27'0 0.0
2015-May-02 03:33N 54°38' W 008°27'0 0.0
2015-May-02 02:33N 54°38' W 008°27'0 0.0
2015-May-02 01:33N 54°38' W 008°27'0 0.0
2015-May-02 00:33N 54°38' W 008°27'0 0.0
2015-May-01 23:33N 54°38' W 008°27'0 0.0
2015-May-01 22:33N 54°38' W 008°27'0 0.0
2015-May-01 21:33N 54°38' W 008°27'0 0.0
2015-May-01 20:33N 54°38' W 008°27'0 0.0
2015-May-01 19:33N 54°38' W 008°27'0 0.0
2015-May-01 18:33N 54°38' W 008°27'0 0.0
2015-May-01 17:33N 54°38' W 008°27'0 0.0
2015-May-01 16:33N 54°38' W 008°27'0 0.0
2015-May-01 15:33N 54°38' W 008°27'0 0.0
2015-May-01 14:33N 54°38' W 008°27'0 0.0
2015-May-01 13:33N 54°38' W 008°27'0 0.0
2015-May-01 12:33N 54°38' W 008°27'0 0.0
2015-May-01 11:33N 54°38' W 008°27'0 0.0
2015-May-01 10:33N 54°38' W 008°27'0 0.0
2015-May-01 09:33N 54°38' W 008°27'0 0.0
2015-May-01 08:33N 54°38' W 008°27'0 0.0
2015-May-01 07:33N 54°38' W 008°27'0 0.0
2015-May-01 06:33N 54°38' W 008°27'0 0.0
2015-May-01 05:33N 54°38' W 008°27'0 0.0
2015-May-01 04:33N 54°38' W 008°27'0 0.0
2015-May-01 03:33N 54°38' W 008°27'0 0.0
2015-May-01 02:33N 54°38' W 008°27'0 0.0
2015-May-01 01:33N 54°38' W 008°27'0 0.0
2015-May-01 00:33N 54°38' W 008°27'0 0.0
2015-Apr-30 23:33N 54°38' W 008°27'0 0.0
2015-Apr-30 22:33N 54°38' W 008°27'0 0.0
2015-Apr-30 21:33N 54°38' W 008°27'0 0.0
2015-Apr-30 20:33N 54°38' W 008°27'0 0.0
2015-Apr-30 19:33N 54°38' W 008°27'0 0.0
2015-Apr-30 18:33N 54°38' W 008°27'0 0.0
2015-Apr-30 17:33N 54°38' W 008°27'0 0.0
2015-Apr-30 16:33N 54°38' W 008°27'0 0.0
2015-Apr-30 15:33N 54°38' W 008°27'0 0.0
2015-Apr-30 14:33N 54°38' W 008°27'0 0.0
2015-Apr-30 13:33N 54°38' W 008°27'0 0.0
2015-Apr-30 12:33N 54°38' W 008°27'0 0.0
2015-Apr-30 11:33N 54°38' W 008°27'0 0.0
2015-Apr-30 10:33N 54°38' W 008°27'0 0.0
2015-Apr-30 09:33N 54°38' W 008°27'0 0.0
2015-Apr-30 08:33N 54°38' W 008°27'0 0.0
2015-Apr-30 07:33N 54°38' W 008°27'0 0.0
2015-Apr-30 06:33N 54°38' W 008°27'0 0.0
2015-Apr-30 05:33N 54°38' W 008°27'0 0.0
2015-Apr-30 04:33N 54°38' W 008°27'0 0.0
2015-Apr-30 03:33N 54°38' W 008°27'0 0.0
2015-Apr-30 02:33N 54°38' W 008°27'0 0.0
2015-Apr-30 01:33N 54°38' W 008°27'0 0.0
2015-Apr-30 00:33N 54°38' W 008°27'0 0.0
2015-Apr-29 23:33N 54°38' W 008°27'0 0.0
2015-Apr-29 22:33N 54°38' W 008°27'0 0.0
2015-Apr-29 21:33N 54°38' W 008°27'0 0.0
2015-Apr-29 20:33N 54°38' W 008°27'0 0.0
2015-Apr-29 19:33N 54°38' W 008°27'0 0.0
2015-Apr-29 18:33N 54°38' W 008°27'0 0.0
2015-Apr-29 17:33N 54°38' W 008°27'0 0.0
2015-Apr-29 16:33N 54°38' W 008°27'0 0.0
2015-Apr-29 15:33N 54°38' W 008°27'0 0.0
2015-Apr-29 14:33N 54°38' W 008°27'0 0.0
2015-Apr-29 13:33N 54°38' W 008°27'0 0.0
2015-Apr-29 12:33N 54°38' W 008°27'0 0.0
2015-Apr-29 11:33N 54°38' W 008°27'0 0.0
2015-Apr-29 10:33N 54°38' W 008°27'0 0.0
2015-Apr-29 09:33N 54°38' W 008°27'0 0.0
2015-Apr-29 08:33N 54°38' W 008°27'  

Dump ship's entire track history